Terminal Aerodrome Forecast
Issued by NWS

Home | Current Version | Previous Version | Text Only | Print | Product List | Glossary On
Versions: 1 2 3 4 5 6 7 8 9 10 11 12 13 14 15 16 17 18 19 20 21 22 23 24
000
FTUS45 KBOU 290528
TAFBJC
TAF
KBJC 290528Z 2906/3006 04004KT P6SM SCT060 BKN100
     FM290900 35005KT P6SM SCT020 BKN050
      TEMPO 2911/2914 BKN020
     FM291700 06008KT P6SM SCT040 SCT080
     FM292100 09010KT P6SM SCT060 BKN080 PROB30 2922/3004 -TSRA
      BKN060CB=

USA.gov is the U.S. government's official web portal to all federal, state and local government web resources and services.